createdAt,value
2023-01-15T00:03:44.866Z,0
2023-01-15T00:08:44.807Z,0
2023-01-15T00:13:44.810Z,0
2023-01-15T00:18:44.829Z,0
2023-01-15T00:23:44.837Z,0
2023-01-15T00:28:44.806Z,0
2023-01-15T00:33:44.816Z,0
2023-01-15T00:38:44.791Z,0
2023-01-15T00:43:44.815Z,0
2023-01-15T00:48:44.787Z,0
2023-01-15T00:53:44.777Z,0
2023-01-15T00:58:44.793Z,0
2023-01-15T01:03:44.820Z,0
2023-01-15T01:08:44.798Z,0
2023-01-15T01:13:44.804Z,0
2023-01-15T01:18:44.765Z,0
2023-01-15T01:23:44.799Z,0
2023-01-15T01:28:44.798Z,0
2023-01-15T01:33:44.789Z,0
2023-01-15T01:38:44.790Z,0
2023-01-15T01:43:44.798Z,0
2023-01-15T01:48:44.783Z,0
2023-01-15T01:53:44.759Z,0
2023-01-15T01:58:44.761Z,0
2023-01-15T02:03:44.798Z,0
2023-01-15T02:08:44.732Z,0
2023-01-15T02:13:44.733Z,0
2023-01-15T02:18:44.777Z,0
2023-01-15T02:23:44.775Z,0
2023-01-15T02:28:44.753Z,0
2023-01-15T02:33:44.772Z,0
2023-01-15T02:38:44.738Z,0
2023-01-15T02:43:44.760Z,0
2023-01-15T02:48:44.756Z,0
2023-01-15T02:53:44.715Z,0
2023-01-15T02:58:44.723Z,0
2023-01-15T03:03:44.708Z,0
2023-01-15T03:08:44.726Z,0
2023-01-15T03:13:44.702Z,0
2023-01-15T03:18:44.748Z,0
2023-01-15T03:23:44.741Z,0
2023-01-15T03:28:44.752Z,0
2023-01-15T03:33:44.710Z,0
2023-01-15T03:38:44.717Z,0
2023-01-15T03:43:44.719Z,0
2023-01-15T03:48:44.701Z,0
2023-01-15T03:53:44.736Z,0
2023-01-15T03:58:44.711Z,0
2023-01-15T04:03:44.704Z,0
2023-01-15T04:08:44.685Z,0
2023-01-15T04:13:44.690Z,0
2023-01-15T04:18:44.693Z,0
2023-01-15T04:23:44.706Z,0
2023-01-15T04:28:44.716Z,0
2023-01-15T04:33:44.695Z,0
2023-01-15T04:38:44.690Z,0
2023-01-15T04:43:44.665Z,0
2023-01-15T04:48:44.684Z,0
2023-01-15T04:53:44.668Z,0
2023-01-15T04:58:44.657Z,0
2023-01-15T05:03:44.684Z,0
2023-01-15T05:08:44.691Z,0
2023-01-15T05:13:44.810Z,0
2023-01-15T05:18:44.655Z,0
2023-01-15T05:23:44.658Z,0
2023-01-15T05:28:44.666Z,0
2023-01-15T05:33:44.891Z,0
2023-01-15T05:38:44.902Z,0
2023-01-15T05:43:44.917Z,0
2023-01-15T05:48:44.911Z,0
2023-01-15T05:53:44.892Z,0
2023-01-15T05:58:44.899Z,0
2023-01-15T06:03:44.921Z,0
2023-01-15T06:08:44.880Z,0
2023-01-15T06:13:44.900Z,0
2023-01-15T06:18:44.877Z,0
2023-01-15T06:23:44.856Z,0
2023-01-15T06:28:44.892Z,0
2023-01-15T06:33:44.881Z,0
2023-01-15T06:38:44.876Z,0
2023-01-15T06:43:44.899Z,0
2023-01-15T06:48:44.876Z,0
2023-01-15T06:53:44.858Z,0
2023-01-15T06:58:44.909Z,0
2023-01-15T07:03:44.896Z,0
2023-01-15T07:08:44.858Z,0
2023-01-15T07:13:44.835Z,0
2023-01-15T07:18:44.821Z,0
2023-01-15T07:23:44.870Z,0
2023-01-15T07:28:44.843Z,0
2023-01-15T07:33:44.844Z,0
2023-01-15T07:38:44.844Z,0
2023-01-15T07:43:44.812Z,0
2023-01-15T07:48:44.857Z,0
2023-01-15T07:53:44.829Z,2
2023-01-15T07:58:44.846Z,8
2023-01-15T08:03:44.848Z,15
2023-01-15T08:08:44.835Z,14
2023-01-15T08:13:44.812Z,14
2023-01-15T08:18:44.810Z,15
2023-01-15T08:23:44.809Z,19
2023-01-15T08:28:44.850Z,32
2023-01-15T08:33:44.844Z,43
2023-01-15T08:38:44.818Z,61
2023-01-15T08:43:44.826Z,57
2023-01-15T08:48:44.819Z,43
2023-01-15T08:53:44.787Z,44
2023-01-15T08:58:45.842Z,50
2023-01-15T09:03:45.858Z,45
2023-01-15T09:08:45.855Z,36
2023-01-15T09:13:45.839Z,34
2023-01-15T09:18:45.851Z,28
2023-01-15T09:23:45.859Z,30
2023-01-15T09:28:45.851Z,35
2023-01-15T09:33:45.861Z,60
2023-01-15T09:38:45.860Z,67
2023-01-15T09:43:50.566Z,68
2023-01-15T09:48:45.824Z,72
2023-01-15T09:53:45.810Z,55
2023-01-15T09:58:45.836Z,136
2023-01-15T10:03:46.055Z,142
2023-01-15T10:08:45.794Z,97
2023-01-15T10:13:45.810Z,139
2023-01-15T10:18:45.817Z,174
2023-01-15T10:23:45.859Z,81
2023-01-15T10:28:45.905Z,70
2023-01-15T10:33:45.801Z,114
2023-01-15T10:38:45.790Z,98
2023-01-15T10:43:45.809Z,83
2023-01-15T10:48:45.821Z,61
2023-01-15T10:53:45.787Z,101
2023-01-15T10:58:45.769Z,165
2023-01-15T11:03:45.785Z,131
2023-01-15T11:09:08.386Z,126
2023-01-15T11:13:45.764Z,136
2023-01-15T11:18:45.773Z,102
2023-01-15T11:23:45.778Z,160
2023-01-15T11:28:45.767Z,121
2023-01-15T11:33:45.789Z,172
2023-01-15T11:38:45.768Z,208
2023-01-15T11:43:45.802Z,120
2023-01-15T11:48:45.801Z,169
2023-01-15T11:53:45.784Z,139
2023-01-15T11:58:45.775Z,147
2023-01-15T12:03:45.842Z,87
2023-01-15T12:08:46.032Z,50
2023-01-15T12:13:46.255Z,30
2023-01-15T12:18:46.248Z,22
2023-01-15T12:23:46.247Z,22
2023-01-15T12:28:46.287Z,56
2023-01-15T12:33:46.260Z,120
2023-01-15T12:38:46.264Z,76
2023-01-15T12:43:46.232Z,54
2023-01-15T12:48:46.263Z,47
2023-01-15T12:53:46.310Z,35
2023-01-15T12:58:46.275Z,39
2023-01-15T13:03:46.235Z,31
2023-01-15T13:08:46.257Z,34
2023-01-15T13:13:46.265Z,29
2023-01-15T13:18:46.264Z,51
2023-01-15T13:23:46.251Z,40
2023-01-15T13:28:46.277Z,60
2023-01-15T13:33:46.215Z,98
2023-01-15T13:38:46.505Z,62
2023-01-15T13:43:46.508Z,23
2023-01-15T13:48:46.485Z,25
2023-01-15T13:53:46.487Z,36
2023-01-15T13:58:46.722Z,39
2023-01-15T14:03:46.724Z,25
2023-01-15T14:08:46.752Z,27
2023-01-15T14:13:46.737Z,34
2023-01-15T14:18:46.729Z,19
2023-01-15T14:23:46.713Z,11
2023-01-15T14:28:46.722Z,15
2023-01-15T14:33:46.720Z,11
2023-01-15T14:38:46.719Z,10
2023-01-15T14:43:46.721Z,8
2023-01-15T14:48:47.765Z,14
2023-01-15T14:53:47.602Z,10
2023-01-15T14:58:47.598Z,9
2023-01-15T15:03:47.624Z,4
2023-01-15T15:08:47.585Z,3
2023-01-15T15:13:47.639Z,0
2023-01-15T15:18:47.586Z,0
2023-01-15T15:23:47.609Z,0
2023-01-15T15:28:47.563Z,0
2023-01-15T15:33:47.598Z,1
2023-01-15T15:38:47.575Z,0
2023-01-15T15:43:47.569Z,0
2023-01-15T15:48:47.613Z,0
2023-01-15T15:53:47.831Z,0
2023-01-15T15:58:47.827Z,0
2023-01-15T16:03:47.826Z,0
2023-01-15T16:08:47.831Z,0
2023-01-15T16:13:47.805Z,0
2023-01-15T16:18:47.790Z,0
2023-01-15T16:23:47.817Z,0
2023-01-15T16:28:47.823Z,0
2023-01-15T16:33:47.801Z,0
2023-01-15T16:38:47.812Z,0
2023-01-15T16:43:47.821Z,0
2023-01-15T16:48:47.825Z,0
2023-01-15T16:53:47.781Z,0
2023-01-15T16:58:47.779Z,0
2023-01-15T17:03:48.571Z,0
2023-01-15T17:08:48.608Z,0
2023-01-15T17:13:48.589Z,0
2023-01-15T17:18:48.853Z,0
2023-01-15T17:23:48.820Z,0
2023-01-15T17:28:48.853Z,0
2023-01-15T17:33:48.835Z,0
2023-01-15T17:38:49.056Z,0
2023-01-15T17:43:49.063Z,0
2023-01-15T17:48:49.052Z,0
2023-01-15T17:53:49.089Z,0
2023-01-15T17:58:49.059Z,0
2023-01-15T18:03:49.053Z,0
2023-01-15T18:08:49.052Z,0
2023-01-15T18:13:49.046Z,0
2023-01-15T18:18:49.285Z,0
2023-01-15T18:23:49.299Z,0
2023-01-15T18:28:49.284Z,0
2023-01-15T18:33:49.277Z,0
2023-01-15T18:38:49.612Z,0
2023-01-15T18:43:49.607Z,0
2023-01-15T18:48:49.565Z,0
2023-01-15T18:53:49.518Z,0
2023-01-15T18:58:49.535Z,0
2023-01-15T19:03:49.510Z,0
2023-01-15T19:08:49.519Z,0
2023-01-15T19:13:49.547Z,0
2023-01-15T19:18:49.541Z,0
2023-01-15T19:23:49.525Z,0
2023-01-15T19:28:49.517Z,0
2023-01-15T19:33:49.514Z,0
2023-01-15T19:38:49.501Z,0
2023-01-15T19:43:49.529Z,0
2023-01-15T19:48:51.103Z,0
2023-01-15T19:53:51.067Z,0
2023-01-15T19:58:51.102Z,0
2023-01-15T20:03:51.055Z,0
2023-01-15T20:08:51.091Z,0
2023-01-15T20:13:51.478Z,0
2023-01-15T20:18:51.110Z,0
2023-01-15T20:23:51.957Z,0
2023-01-15T20:28:51.947Z,0
2023-01-15T20:33:51.967Z,0
2023-01-15T20:38:51.955Z,0
2023-01-15T20:43:51.957Z,0
2023-01-15T20:48:51.931Z,0
2023-01-15T20:53:51.930Z,0
2023-01-15T20:58:51.921Z,0
2023-01-15T21:03:51.938Z,0
2023-01-15T21:08:51.927Z,0
2023-01-15T21:13:51.905Z,0
2023-01-15T21:18:51.927Z,0
2023-01-15T21:23:52.194Z,0
2023-01-15T21:28:52.163Z,0
2023-01-15T21:33:52.169Z,0
2023-01-15T21:38:52.164Z,0
2023-01-15T21:43:52.137Z,0
2023-01-15T21:48:52.114Z,0
2023-01-15T21:53:52.407Z,0
2023-01-15T21:58:52.377Z,0
2023-01-15T22:03:52.414Z,0
2023-01-15T22:08:52.371Z,0
2023-01-15T22:13:52.419Z,0
2023-01-15T22:18:52.407Z,0
2023-01-15T22:23:54.697Z,0
2023-01-15T22:28:54.703Z,0
2023-01-15T22:33:54.700Z,0
2023-01-15T22:38:54.930Z,0
2023-01-15T22:43:54.928Z,0
2023-01-15T22:48:54.932Z,0
2023-01-15T22:53:54.954Z,0
2023-01-15T22:58:54.914Z,0
2023-01-15T23:03:54.950Z,0
2023-01-15T23:08:54.914Z,0
2023-01-15T23:13:54.932Z,0
2023-01-15T23:18:54.922Z,0
2023-01-15T23:23:54.954Z,0
2023-01-15T23:28:54.907Z,0
2023-01-15T23:33:54.918Z,0
2023-01-15T23:38:54.956Z,0
2023-01-15T23:43:54.876Z,0
2023-01-15T23:48:54.880Z,0
2023-01-15T23:53:54.869Z,0
2023-01-15T23:58:55.191Z,0
